sensor_id;sensor_type;location;lat;lon;timestamp;P1;durP1;ratioP1;P2;durP2;ratioP2
48925;SDS011;39838;59.938;30.642;2023-03-23T00:02:02;15.52;;;9.07;;
48925;SDS011;39838;59.938;30.642;2023-03-23T00:04:30;16.35;;;9.00;;
48925;SDS011;39838;59.938;30.642;2023-03-23T00:06:57;14.88;;;8.85;;
48925;SDS011;39838;59.938;30.642;2023-03-23T00:09:26;16.08;;;8.70;;
48925;SDS011;39838;59.938;30.642;2023-03-23T00:11:53;14.73;;;8.80;;
48925;SDS011;39838;59.938;30.642;2023-03-23T00:14:22;16.55;;;8.57;;
48925;SDS011;39838;59.938;30.642;2023-03-23T00:16:51;12.25;;;8.07;;
48925;SDS011;39838;59.938;30.642;2023-03-23T00:19:18;15.52;;;8.55;;
48925;SDS011;39838;59.938;30.642;2023-03-23T00:21:46;15.10;;;9.07;;
48925;SDS011;39838;59.938;30.642;2023-03-23T00:24:13;15.20;;;8.77;;
48925;SDS011;39838;59.938;30.642;2023-03-23T00:26:43;17.75;;;8.73;;
48925;SDS011;39838;59.938;30.642;2023-03-23T00:29:12;14.77;;;9.38;;
48925;SDS011;39838;59.938;30.642;2023-03-23T00:31:41;16.75;;;8.73;;
48925;SDS011;39838;59.938;30.642;2023-03-23T00:34:14;15.20;;;8.45;;
48925;SDS011;39838;59.938;30.642;2023-03-23T00:36:44;15.15;;;8.80;;
48925;SDS011;39838;59.938;30.642;2023-03-23T00:39:12;14.95;;;8.77;;
48925;SDS011;39838;59.938;30.642;2023-03-23T00:41:41;14.15;;;9.05;;
48925;SDS011;39838;59.938;30.642;2023-03-23T00:44:09;13.50;;;9.20;;
48925;SDS011;39838;59.938;30.642;2023-03-23T00:46:41;15.13;;;8.25;;
48925;SDS011;39838;59.938;30.642;2023-03-23T00:49:11;16.27;;;8.90;;
48925;SDS011;39838;59.938;30.642;2023-03-23T00:51:41;17.98;;;10.02;;
48925;SDS011;39838;59.938;30.642;2023-03-23T00:54:08;14.20;;;8.93;;
48925;SDS011;39838;59.938;30.642;2023-03-23T00:56:37;17.73;;;9.07;;
48925;SDS011;39838;59.938;30.642;2023-03-23T00:59:04;14.10;;;8.75;;
48925;SDS011;39838;59.938;30.642;2023-03-23T01:01:32;16.00;;;9.32;;
48925;SDS011;39838;59.938;30.642;2023-03-23T01:04:03;13.73;;;8.10;;
48925;SDS011;39838;59.938;30.642;2023-03-23T01:06:31;15.05;;;8.10;;
48925;SDS011;39838;59.938;30.642;2023-03-23T01:09:05;15.43;;;9.00;;
48925;SDS011;39838;59.938;30.642;2023-03-23T01:11:34;15.57;;;9.45;;
48925;SDS011;39838;59.938;30.642;2023-03-23T01:14:02;15.88;;;9.65;;
48925;SDS011;39838;59.938;30.642;2023-03-23T01:16:30;14.40;;;9.20;;
48925;SDS011;39838;59.938;30.642;2023-03-23T01:18:57;16.90;;;9.35;;
48925;SDS011;39838;59.938;30.642;2023-03-23T01:21:24;13.98;;;9.13;;
48925;SDS011;39838;59.938;30.642;2023-03-23T01:23:52;15.45;;;9.13;;
48925;SDS011;39838;59.938;30.642;2023-03-23T01:26:21;13.00;;;8.38;;
48925;SDS011;39838;59.938;30.642;2023-03-23T01:28:50;13.70;;;8.70;;
48925;SDS011;39838;59.938;30.642;2023-03-23T01:31:18;15.00;;;9.77;;
48925;SDS011;39838;59.938;30.642;2023-03-23T01:33:46;14.65;;;8.68;;
48925;SDS011;39838;59.938;30.642;2023-03-23T01:36:16;14.88;;;9.15;;
48925;SDS011;39838;59.938;30.642;2023-03-23T01:38:46;13.75;;;8.70;;
48925;SDS011;39838;59.938;30.642;2023-03-23T01:41:15;14.27;;;9.00;;
48925;SDS011;39838;59.938;30.642;2023-03-23T01:43:55;16.65;;;9.13;;
48925;SDS011;39838;59.938;30.642;2023-03-23T01:46:25;14.35;;;9.23;;
48925;SDS011;39838;59.938;30.642;2023-03-23T01:48:53;14.32;;;9.13;;
48925;SDS011;39838;59.938;30.642;2023-03-23T01:51:23;15.00;;;9.15;;
48925;SDS011;39838;59.938;30.642;2023-03-23T01:53:53;14.48;;;8.82;;
48925;SDS011;39838;59.938;30.642;2023-03-23T01:56:24;14.80;;;8.95;;
48925;SDS011;39838;59.938;30.642;2023-03-23T01:58:56;16.40;;;9.43;;
48925;SDS011;39838;59.938;30.642;2023-03-23T02:01:23;15.10;;;9.60;;
48925;SDS011;39838;59.938;30.642;2023-03-23T02:03:52;16.38;;;9.18;;
48925;SDS011;39838;59.938;30.642;2023-03-23T02:06:23;14.35;;;9.32;;
48925;SDS011;39838;59.938;30.642;2023-03-23T02:08:50;18.42;;;9.80;;
48925;SDS011;39838;59.938;30.642;2023-03-23T02:11:19;17.92;;;9.68;;
48925;SDS011;39838;59.938;30.642;2023-03-23T02:13:48;14.68;;;9.10;;
48925;SDS011;39838;59.938;30.642;2023-03-23T02:16:20;15.43;;;9.95;;
48925;SDS011;39838;59.938;30.642;2023-03-23T02:18:57;15.73;;;11.02;;
48925;SDS011;39838;59.938;30.642;2023-03-23T02:24:30;20.58;;;10.10;;
48925;SDS011;39838;59.938;30.642;2023-03-23T02:27:20;17.38;;;10.05;;
48925;SDS011;39838;59.938;30.642;2023-03-23T02:30:07;14.90;;;9.80;;
48925;SDS011;39838;59.938;30.642;2023-03-23T02:32:50;14.52;;;9.07;;
48925;SDS011;39838;59.938;30.642;2023-03-23T02:35:40;17.73;;;9.57;;
48925;SDS011;39838;59.938;30.642;2023-03-23T02:38:12;15.70;;;9.75;;
48925;SDS011;39838;59.938;30.642;2023-03-23T02:40:42;15.75;;;9.52;;
48925;SDS011;39838;59.938;30.642;2023-03-23T02:43:14;15.70;;;9.98;;
48925;SDS011;39838;59.938;30.642;2023-03-23T02:45:44;15.25;;;10.15;;
48925;SDS011;39838;59.938;30.642;2023-03-23T02:48:13;16.38;;;9.82;;
48925;SDS011;39838;59.938;30.642;2023-03-23T02:50:44;18.70;;;10.38;;
48925;SDS011;39838;59.938;30.642;2023-03-23T02:53:16;15.73;;;8.80;;
48925;SDS011;39838;59.938;30.642;2023-03-23T02:55:48;16.25;;;10.00;;
48925;SDS011;39838;59.938;30.642;2023-03-23T02:58:18;14.57;;;9.32;;
48925;SDS011;39838;59.938;30.642;2023-03-23T03:00:45;15.65;;;9.23;;
48925;SDS011;39838;59.938;30.642;2023-03-23T03:03:16;15.07;;;9.45;;
48925;SDS011;39838;59.938;30.642;2023-03-23T03:05:51;16.55;;;9.45;;
48925;SDS011;39838;59.938;30.642;2023-03-23T03:08:29;15.05;;;9.30;;
48925;SDS011;39838;59.938;30.642;2023-03-23T03:11:06;14.07;;;8.88;;
48925;SDS011;39838;59.938;30.642;2023-03-23T03:13:36;15.00;;;9.15;;
48925;SDS011;39838;59.938;30.642;2023-03-23T03:16:13;14.73;;;9.40;;
48925;SDS011;39838;59.938;30.642;2023-03-23T03:18:47;13.57;;;9.27;;
48925;SDS011;39838;59.938;30.642;2023-03-23T03:21:20;14.90;;;9.00;;
48925;SDS011;39838;59.938;30.642;2023-03-23T03:23:50;14.10;;;8.48;;
48925;SDS011;39838;59.938;30.642;2023-03-23T03:26:21;14.20;;;9.43;;
48925;SDS011;39838;59.938;30.642;2023-03-23T03:28:52;12.95;;;8.90;;
48925;SDS011;39838;59.938;30.642;2023-03-23T03:31:20;13.27;;;8.73;;
48925;SDS011;39838;59.938;30.642;2023-03-23T03:33:50;13.80;;;8.88;;
48925;SDS011;39838;59.938;30.642;2023-03-23T03:36:20;14.90;;;9.52;;
48925;SDS011;39838;59.938;30.642;2023-03-23T03:38:51;13.13;;;8.27;;
48925;SDS011;39838;59.938;30.642;2023-03-23T03:41:19;15.25;;;9.40;;
48925;SDS011;39838;59.938;30.642;2023-03-23T03:43:46;14.65;;;8.43;;
48925;SDS011;39838;59.938;30.642;2023-03-23T03:46:14;14.30;;;8.55;;
48925;SDS011;39838;59.938;30.642;2023-03-23T03:48:41;13.65;;;8.70;;
48925;SDS011;39838;59.938;30.642;2023-03-23T03:51:08;13.38;;;8.45;;
48925;SDS011;39838;59.938;30.642;2023-03-23T03:53:37;12.63;;;8.32;;
48925;SDS011;39838;59.938;30.642;2023-03-23T03:56:04;14.40;;;8.85;;
48925;SDS011;39838;59.938;30.642;2023-03-23T03:58:32;12.32;;;8.02;;
48925;SDS011;39838;59.938;30.642;2023-03-23T04:01:01;13.93;;;7.53;;
48925;SDS011;39838;59.938;30.642;2023-03-23T04:03:29;14.25;;;8.50;;
48925;SDS011;39838;59.938;30.642;2023-03-23T04:05:56;11.15;;;7.30;;
48925;SDS011;39838;59.938;30.642;2023-03-23T04:08:24;10.30;;;7.22;;
48925;SDS011;39838;59.938;30.642;2023-03-23T04:10:53;11.75;;;7.32;;
48925;SDS011;39838;59.938;30.642;2023-03-23T04:13:21;11.95;;;7.60;;
48925;SDS011;39838;59.938;30.642;2023-03-23T04:15:49;13.15;;;7.80;;
48925;SDS011;39838;59.938;30.642;2023-03-23T04:18:16;12.70;;;7.22;;
48925;SDS011;39838;59.938;30.642;2023-03-23T04:20:45;10.93;;;7.13;;
48925;SDS011;39838;59.938;30.642;2023-03-23T04:23:14;13.15;;;8.70;;
48925;SDS011;39838;59.938;30.642;2023-03-23T04:25:45;11.30;;;7.10;;
48925;SDS011;39838;59.938;30.642;2023-03-23T04:28:14;11.77;;;7.13;;
48925;SDS011;39838;59.938;30.642;2023-03-23T04:30:44;12.73;;;7.80;;
48925;SDS011;39838;59.938;30.642;2023-03-23T04:33:14;10.70;;;6.82;;
48925;SDS011;39838;59.938;30.642;2023-03-23T04:35:42;12.43;;;6.97;;
48925;SDS011;39838;59.938;30.642;2023-03-23T04:38:11;12.35;;;7.53;;
48925;SDS011;39838;59.938;30.642;2023-03-23T04:40:40;10.77;;;7.65;;
48925;SDS011;39838;59.938;30.642;2023-03-23T04:43:08;10.25;;;7.00;;
48925;SDS011;39838;59.938;30.642;2023-03-23T04:45:39;11.60;;;7.28;;
48925;SDS011;39838;59.938;30.642;2023-03-23T04:48:11;11.20;;;7.22;;
48925;SDS011;39838;59.938;30.642;2023-03-23T04:50:39;13.07;;;8.45;;
48925;SDS011;39838;59.938;30.642;2023-03-23T04:53:06;10.18;;;7.05;;
48925;SDS011;39838;59.938;30.642;2023-03-23T04:55:34;11.57;;;7.38;;
48925;SDS011;39838;59.938;30.642;2023-03-23T04:58:02;13.25;;;7.90;;
48925;SDS011;39838;59.938;30.642;2023-03-23T05:00:29;13.13;;;7.43;;
48925;SDS011;39838;59.938;30.642;2023-03-23T05:02:59;12.05;;;7.40;;
48925;SDS011;39838;59.938;30.642;2023-03-23T05:05:26;12.73;;;7.75;;
48925;SDS011;39838;59.938;30.642;2023-03-23T05:07:55;13.15;;;8.05;;
48925;SDS011;39838;59.938;30.642;2023-03-23T05:10:23;12.00;;;7.72;;
48925;SDS011;39838;59.938;30.642;2023-03-23T05:12:52;11.65;;;8.25;;
48925;SDS011;39838;59.938;30.642;2023-03-23T05:15:20;12.18;;;7.45;;
48925;SDS011;39838;59.938;30.642;2023-03-23T05:17:47;13.45;;;8.43;;
48925;SDS011;39838;59.938;30.642;2023-03-23T05:20:19;14.65;;;8.25;;
48925;SDS011;39838;59.938;30.642;2023-03-23T05:22:47;14.48;;;8.00;;
48925;SDS011;39838;59.938;30.642;2023-03-23T05:25:18;14.13;;;8.82;;
48925;SDS011;39838;59.938;30.642;2023-03-23T05:27:45;13.55;;;8.52;;
48925;SDS011;39838;59.938;30.642;2023-03-23T05:30:18;14.52;;;8.43;;
48925;SDS011;39838;59.938;30.642;2023-03-23T05:32:46;15.93;;;9.02;;
48925;SDS011;39838;59.938;30.642;2023-03-23T05:35:16;13.77;;;8.43;;
48925;SDS011;39838;59.938;30.642;2023-03-23T05:37:46;15.30;;;9.55;;
48925;SDS011;39838;59.938;30.642;2023-03-23T05:40:13;13.85;;;8.68;;
48925;SDS011;39838;59.938;30.642;2023-03-23T05:42:41;15.68;;;8.77;;
48925;SDS011;39838;59.938;30.642;2023-03-23T05:45:10;16.20;;;8.98;;
48925;SDS011;39838;59.938;30.642;2023-03-23T05:47:38;14.95;;;8.20;;
48925;SDS011;39838;59.938;30.642;2023-03-23T05:50:07;14.82;;;8.50;;
48925;SDS011;39838;59.938;30.642;2023-03-23T05:52:36;15.68;;;8.98;;
48925;SDS011;39838;59.938;30.642;2023-03-23T05:55:06;15.50;;;8.93;;
48925;SDS011;39838;59.938;30.642;2023-03-23T05:57:34;16.90;;;8.60;;
48925;SDS011;39838;59.938;30.642;2023-03-23T06:00:02;15.10;;;8.82;;
48925;SDS011;39838;59.938;30.642;2023-03-23T06:02:39;13.95;;;8.20;;
48925;SDS011;39838;59.938;30.642;2023-03-23T06:05:09;14.00;;;8.10;;
48925;SDS011;39838;59.938;30.642;2023-03-23T06:07:36;16.25;;;8.93;;
48925;SDS011;39838;59.938;30.642;2023-03-23T06:10:06;14.82;;;8.95;;
48925;SDS011;39838;59.938;30.642;2023-03-23T06:12:35;17.65;;;8.48;;
48925;SDS011;39838;59.938;30.642;2023-03-23T06:15:04;13.68;;;8.38;;
48925;SDS011;39838;59.938;30.642;2023-03-23T06:17:33;14.23;;;8.48;;
48925;SDS011;39838;59.938;30.642;2023-03-23T06:20:01;14.48;;;7.95;;
48925;SDS011;39838;59.938;30.642;2023-03-23T06:22:34;13.85;;;8.00;;
48925;SDS011;39838;59.938;30.642;2023-03-23T06:25:01;13.90;;;7.93;;
48925;SDS011;39838;59.938;30.642;2023-03-23T06:27:30;13.93;;;7.60;;
48925;SDS011;39838;59.938;30.642;2023-03-23T06:29:58;13.55;;;8.20;;
48925;SDS011;39838;59.938;30.642;2023-03-23T06:32:25;14.43;;;7.93;;
48925;SDS011;39838;59.938;30.642;2023-03-23T06:34:55;13.93;;;7.70;;
48925;SDS011;39838;59.938;30.642;2023-03-23T06:37:23;12.90;;;8.20;;
48925;SDS011;39838;59.938;30.642;2023-03-23T06:39:50;15.02;;;8.00;;
48925;SDS011;39838;59.938;30.642;2023-03-23T06:42:18;10.55;;;6.90;;
48925;SDS011;39838;59.938;30.642;2023-03-23T06:44:47;13.73;;;7.45;;
48925;SDS011;39838;59.938;30.642;2023-03-23T06:47:14;13.98;;;7.60;;
48925;SDS011;39838;59.938;30.642;2023-03-23T06:49:41;14.48;;;7.60;;
48925;SDS011;39838;59.938;30.642;2023-03-23T06:52:08;11.50;;;7.63;;
48925;SDS011;39838;59.938;30.642;2023-03-23T06:54:36;16.38;;;8.23;;
48925;SDS011;39838;59.938;30.642;2023-03-23T06:57:03;16.77;;;7.97;;
48925;SDS011;39838;59.938;30.642;2023-03-23T06:59:31;10.95;;;6.90;;
48925;SDS011;39838;59.938;30.642;2023-03-23T07:01:59;13.75;;;7.55;;
48925;SDS011;39838;59.938;30.642;2023-03-23T07:04:27;11.77;;;7.20;;
48925;SDS011;39838;59.938;30.642;2023-03-23T07:06:54;10.90;;;6.60;;
48925;SDS011;39838;59.938;30.642;2023-03-23T07:09:21;10.73;;;7.13;;
48925;SDS011;39838;59.938;30.642;2023-03-23T07:11:48;12.38;;;6.93;;
48925;SDS011;39838;59.938;30.642;2023-03-23T07:14:16;14.80;;;7.95;;
48925;SDS011;39838;59.938;30.642;2023-03-23T07:16:44;12.88;;;7.03;;
48925;SDS011;39838;59.938;30.642;2023-03-23T07:19:13;12.82;;;7.50;;
48925;SDS011;39838;59.938;30.642;2023-03-23T07:21:40;11.73;;;6.85;;
48925;SDS011;39838;59.938;30.642;2023-03-23T07:24:10;12.07;;;6.70;;
48925;SDS011;39838;59.938;30.642;2023-03-23T07:26:39;10.77;;;6.05;;
48925;SDS011;39838;59.938;30.642;2023-03-23T07:29:07;9.60;;;6.13;;
48925;SDS011;39838;59.938;30.642;2023-03-23T07:31:34;9.75;;;5.55;;
48925;SDS011;39838;59.938;30.642;2023-03-23T07:34:02;11.80;;;5.05;;
48925;SDS011;39838;59.938;30.642;2023-03-23T07:36:31;7.68;;;4.95;;
48925;SDS011;39838;59.938;30.642;2023-03-23T07:39:00;6.57;;;4.70;;
48925;SDS011;39838;59.938;30.642;2023-03-23T07:41:27;7.70;;;4.60;;
48925;SDS011;39838;59.938;30.642;2023-03-23T07:43:55;9.95;;;4.72;;
48925;SDS011;39838;59.938;30.642;2023-03-23T07:46:22;7.95;;;4.45;;
48925;SDS011;39838;59.938;30.642;2023-03-23T07:48:50;7.25;;;4.95;;
48925;SDS011;39838;59.938;30.642;2023-03-23T07:51:17;6.40;;;4.10;;
48925;SDS011;39838;59.938;30.642;2023-03-23T07:53:46;7.25;;;4.55;;
48925;SDS011;39838;59.938;30.642;2023-03-23T07:56:13;7.53;;;4.10;;
48925;SDS011;39838;59.938;30.642;2023-03-23T07:58:44;6.82;;;4.30;;
48925;SDS011;39838;59.938;30.642;2023-03-23T08:01:11;7.05;;;4.55;;
48925;SDS011;39838;59.938;30.642;2023-03-23T08:03:39;5.97;;;4.05;;
48925;SDS011;39838;59.938;30.642;2023-03-23T08:06:06;6.90;;;4.47;;
48925;SDS011;39838;59.938;30.642;2023-03-23T08:08:34;6.13;;;3.95;;
48925;SDS011;39838;59.938;30.642;2023-03-23T08:11:04;5.63;;;4.10;;
48925;SDS011;39838;59.938;30.642;2023-03-23T08:13:31;6.00;;;3.85;;
48925;SDS011;39838;59.938;30.642;2023-03-23T08:16:00;6.60;;;4.50;;
48925;SDS011;39838;59.938;30.642;2023-03-23T08:18:29;6.90;;;4.05;;
48925;SDS011;39838;59.938;30.642;2023-03-23T08:20:56;7.57;;;3.70;;
48925;SDS011;39838;59.938;30.642;2023-03-23T08:23:24;4.93;;;3.55;;
48925;SDS011;39838;59.938;30.642;2023-03-23T08:25:51;6.20;;;4.00;;
48925;SDS011;39838;59.938;30.642;2023-03-23T08:28:20;7.32;;;4.30;;
48925;SDS011;39838;59.938;30.642;2023-03-23T08:30:47;6.22;;;4.13;;
48925;SDS011;39838;59.938;30.642;2023-03-23T08:33:15;6.13;;;4.00;;
48925;SDS011;39838;59.938;30.642;2023-03-23T08:35:43;8.23;;;4.40;;
48925;SDS011;39838;59.938;30.642;2023-03-23T08:38:10;7.32;;;4.53;;
48925;SDS011;39838;59.938;30.642;2023-03-23T08:40:38;6.10;;;4.55;;
48925;SDS011;39838;59.938;30.642;2023-03-23T08:43:05;5.78;;;4.38;;
48925;SDS011;39838;59.938;30.642;2023-03-23T08:45:34;6.10;;;4.15;;
48925;SDS011;39838;59.938;30.642;2023-03-23T08:48:01;7.53;;;4.55;;
48925;SDS011;39838;59.938;30.642;2023-03-23T08:50:29;6.40;;;4.60;;
48925;SDS011;39838;59.938;30.642;2023-03-23T08:52:57;5.65;;;4.38;;
48925;SDS011;39838;59.938;30.642;2023-03-23T08:55:24;8.85;;;4.85;;
48925;SDS011;39838;59.938;30.642;2023-03-23T08:57:52;6.78;;;4.30;;
48925;SDS011;39838;59.938;30.642;2023-03-23T09:00:20;6.50;;;4.60;;
48925;SDS011;39838;59.938;30.642;2023-03-23T09:02:52;7.30;;;5.07;;
48925;SDS011;39838;59.938;30.642;2023-03-23T09:05:22;8.05;;;4.20;;
48925;SDS011;39838;59.938;30.642;2023-03-23T09:07:51;6.53;;;4.40;;
48925;SDS011;39838;59.938;30.642;2023-03-23T09:10:20;5.55;;;3.70;;
48925;SDS011;39838;59.938;30.642;2023-03-23T09:12:49;6.47;;;3.80;;
48925;SDS011;39838;59.938;30.642;2023-03-23T09:15:19;6.15;;;3.60;;
48925;SDS011;39838;59.938;30.642;2023-03-23T09:17:49;7.07;;;3.80;;
48925;SDS011;39838;59.938;30.642;2023-03-23T09:20:20;5.43;;;3.92;;
48925;SDS011;39838;59.938;30.642;2023-03-23T09:22:50;5.13;;;3.70;;
48925;SDS011;39838;59.938;30.642;2023-03-23T09:25:20;6.28;;;3.95;;
48925;SDS011;39838;59.938;30.642;2023-03-23T09:27:51;6.45;;;4.00;;
48925;SDS011;39838;59.938;30.642;2023-03-23T09:30:22;5.57;;;3.78;;
48925;SDS011;39838;59.938;30.642;2023-03-23T09:32:51;9.70;;;3.90;;
48925;SDS011;39838;59.938;30.642;2023-03-23T09:35:21;6.85;;;3.92;;
48925;SDS011;39838;59.938;30.642;2023-03-23T09:37:49;5.13;;;3.30;;
48925;SDS011;39838;59.938;30.642;2023-03-23T09:40:18;5.85;;;3.33;;
48925;SDS011;39838;59.938;30.642;2023-03-23T09:42:51;5.22;;;3.20;;
48925;SDS011;39838;59.938;30.642;2023-03-23T09:45:29;4.80;;;3.08;;
48925;SDS011;39838;59.938;30.642;2023-03-23T09:48:12;5.20;;;3.20;;
48925;SDS011;39838;59.938;30.642;2023-03-23T09:50:55;4.20;;;3.10;;
48925;SDS011;39838;59.938;30.642;2023-03-23T09:53:32;4.40;;;3.00;;
48925;SDS011;39838;59.938;30.642;2023-03-23T09:56:08;5.18;;;3.35;;
48925;SDS011;39838;59.938;30.642;2023-03-23T09:58:43;6.00;;;3.47;;
48925;SDS011;39838;59.938;30.642;2023-03-23T10:03:47;5.45;;;3.40;;
48925;SDS011;39838;59.938;30.642;2023-03-23T10:06:16;5.88;;;3.38;;
48925;SDS011;39838;59.938;30.642;2023-03-23T10:08:46;5.35;;;3.30;;
48925;SDS011;39838;59.938;30.642;2023-03-23T10:11:16;5.15;;;3.13;;
48925;SDS011;39838;59.938;30.642;2023-03-23T10:13:54;5.10;;;2.95;;
48925;SDS011;39838;59.938;30.642;2023-03-23T10:16:29;5.78;;;3.30;;
48925;SDS011;39838;59.938;30.642;2023-03-23T10:19:01;6.78;;;2.80;;
48925;SDS011;39838;59.938;30.642;2023-03-23T10:21:39;5.50;;;2.90;;
48925;SDS011;39838;59.938;30.642;2023-03-23T10:24:13;4.60;;;3.10;;
48925;SDS011;39838;59.938;30.642;2023-03-23T10:26:46;3.95;;;2.90;;
48925;SDS011;39838;59.938;30.642;2023-03-23T10:29:21;6.90;;;3.30;;
48925;SDS011;39838;59.938;30.642;2023-03-23T10:31:52;5.32;;;3.17;;
48925;SDS011;39838;59.938;30.642;2023-03-23T10:34:22;4.97;;;3.15;;
48925;SDS011;39838;59.938;30.642;2023-03-23T10:37:03;7.57;;;3.40;;
48925;SDS011;39838;59.938;30.642;2023-03-23T10:39:37;5.22;;;2.97;;
48925;SDS011;39838;59.938;30.642;2023-03-23T10:42:11;5.00;;;3.17;;
48925;SDS011;39838;59.938;30.642;2023-03-23T10:44:38;6.93;;;3.58;;
48925;SDS011;39838;59.938;30.642;2023-03-23T10:47:06;7.88;;;3.35;;
48925;SDS011;39838;59.938;30.642;2023-03-23T10:49:37;4.95;;;2.78;;
48925;SDS011;39838;59.938;30.642;2023-03-23T10:52:13;5.55;;;3.05;;
48925;SDS011;39838;59.938;30.642;2023-03-23T10:54:50;6.40;;;3.40;;
48925;SDS011;39838;59.938;30.642;2023-03-23T10:57:21;4.95;;;3.20;;
48925;SDS011;39838;59.938;30.642;2023-03-23T10:59:50;4.82;;;2.72;;
48925;SDS011;39838;59.938;30.642;2023-03-23T11:02:18;7.55;;;3.60;;
48925;SDS011;39838;59.938;30.642;2023-03-23T11:04:57;6.45;;;3.28;;
48925;SDS011;39838;59.938;30.642;2023-03-23T11:07:29;6.82;;;3.10;;
48925;SDS011;39838;59.938;30.642;2023-03-23T11:10:04;5.07;;;3.10;;
48925;SDS011;39838;59.938;30.642;2023-03-23T11:12:35;5.50;;;3.33;;
48925;SDS011;39838;59.938;30.642;2023-03-23T11:15:16;7.13;;;3.00;;
48925;SDS011;39838;59.938;30.642;2023-03-23T11:17:58;5.80;;;3.45;;
48925;SDS011;39838;59.938;30.642;2023-03-23T11:20:27;7.45;;;3.80;;
48925;SDS011;39838;59.938;30.642;2023-03-23T11:22:58;8.57;;;3.90;;
48925;SDS011;39838;59.938;30.642;2023-03-23T11:25:25;6.68;;;3.30;;
48925;SDS011;39838;59.938;30.642;2023-03-23T11:27:53;10.25;;;4.35;;
48925;SDS011;39838;59.938;30.642;2023-03-23T11:30:22;6.40;;;4.18;;
48925;SDS011;39838;59.938;30.642;2023-03-23T11:32:54;8.35;;;3.88;;
48925;SDS011;39838;59.938;30.642;2023-03-23T11:35:26;7.53;;;4.00;;
48925;SDS011;39838;59.938;30.642;2023-03-23T11:37:56;8.20;;;3.85;;
48925;SDS011;39838;59.938;30.642;2023-03-23T11:40:26;6.75;;;3.78;;
48925;SDS011;39838;59.938;30.642;2023-03-23T11:42:57;6.60;;;3.95;;
48925;SDS011;39838;59.938;30.642;2023-03-23T11:45:31;6.75;;;3.95;;
48925;SDS011;39838;59.938;30.642;2023-03-23T11:48:10;6.85;;;4.25;;
48925;SDS011;39838;59.938;30.642;2023-03-23T11:50:47;5.53;;;3.92;;
48925;SDS011;39838;59.938;30.642;2023-03-23T11:55:53;8.70;;;4.30;;
48925;SDS011;39838;59.938;30.642;2023-03-23T11:58:27;7.25;;;4.00;;
48925;SDS011;39838;59.938;30.642;2023-03-23T12:00:59;10.02;;;3.92;;
48925;SDS011;39838;59.938;30.642;2023-03-23T12:03:37;11.32;;;4.15;;
48925;SDS011;39838;59.938;30.642;2023-03-23T12:06:29;9.43;;;4.05;;
48925;SDS011;39838;59.938;30.642;2023-03-23T12:11:38;7.47;;;4.13;;
48925;SDS011;39838;59.938;30.642;2023-03-23T12:14:14;6.68;;;3.90;;
48925;SDS011;39838;59.938;30.642;2023-03-23T12:16:53;6.72;;;3.60;;
48925;SDS011;39838;59.938;30.642;2023-03-23T12:19:29;6.57;;;3.22;;
48925;SDS011;39838;59.938;30.642;2023-03-23T12:22:06;6.35;;;3.40;;
48925;SDS011;39838;59.938;30.642;2023-03-23T12:24:46;6.13;;;3.33;;
48925;SDS011;39838;59.938;30.642;2023-03-23T12:27:25;6.25;;;3.35;;
48925;SDS011;39838;59.938;30.642;2023-03-23T12:30:02;6.13;;;3.15;;
48925;SDS011;39838;59.938;30.642;2023-03-23T12:32:41;8.23;;;3.58;;
48925;SDS011;39838;59.938;30.642;2023-03-23T12:35:20;9.18;;;3.90;;
48925;SDS011;39838;59.938;30.642;2023-03-23T12:40:54;8.07;;;3.33;;
48925;SDS011;39838;59.938;30.642;2023-03-23T12:43:30;7.78;;;3.83;;
48925;SDS011;39838;59.938;30.642;2023-03-23T12:46:08;5.00;;;3.30;;
48925;SDS011;39838;59.938;30.642;2023-03-23T12:48:56;6.90;;;3.20;;
48925;SDS011;39838;59.938;30.642;2023-03-23T12:51:29;7.10;;;3.03;;
48925;SDS011;39838;59.938;30.642;2023-03-23T12:54:01;7.43;;;3.10;;
48925;SDS011;39838;59.938;30.642;2023-03-23T12:56:37;10.27;;;3.40;;
48925;SDS011;39838;59.938;30.642;2023-03-23T12:59:12;6.13;;;3.08;;
48925;SDS011;39838;59.938;30.642;2023-03-23T13:01:47;7.53;;;3.15;;
48925;SDS011;39838;59.938;30.642;2023-03-23T13:04:20;7.07;;;3.05;;
48925;SDS011;39838;59.938;30.642;2023-03-23T13:06:52;6.00;;;3.10;;
48925;SDS011;39838;59.938;30.642;2023-03-23T13:09:20;5.85;;;3.28;;
48925;SDS011;39838;59.938;30.642;2023-03-23T13:11:54;7.32;;;3.55;;
48925;SDS011;39838;59.938;30.642;2023-03-23T13:14:27;7.18;;;3.40;;
48925;SDS011;39838;59.938;30.642;2023-03-23T13:17:05;8.68;;;3.58;;
48925;SDS011;39838;59.938;30.642;2023-03-23T13:19:39;5.72;;;3.30;;
48925;SDS011;39838;59.938;30.642;2023-03-23T13:22:18;6.13;;;3.15;;
48925;SDS011;39838;59.938;30.642;2023-03-23T13:24:55;6.55;;;3.28;;
48925;SDS011;39838;59.938;30.642;2023-03-23T13:27:28;5.95;;;2.90;;
48925;SDS011;39838;59.938;30.642;2023-03-23T13:29:56;8.85;;;3.10;;
48925;SDS011;39838;59.938;30.642;2023-03-23T13:32:29;5.70;;;3.10;;
48925;SDS011;39838;59.938;30.642;2023-03-23T13:37:28;6.60;;;2.92;;
48925;SDS011;39838;59.938;30.642;2023-03-23T13:39:56;6.68;;;3.10;;
48925;SDS011;39838;59.938;30.642;2023-03-23T13:42:28;6.93;;;3.40;;
48925;SDS011;39838;59.938;30.642;2023-03-23T13:45:07;6.45;;;3.03;;
48925;SDS011;39838;59.938;30.642;2023-03-23T13:47:46;6.00;;;3.17;;
48925;SDS011;39838;59.938;30.642;2023-03-23T13:50:24;7.53;;;3.10;;
48925;SDS011;39838;59.938;30.642;2023-03-23T13:52:57;7.70;;;3.10;;
48925;SDS011;39838;59.938;30.642;2023-03-23T13:55:30;8.30;;;3.13;;
48925;SDS011;39838;59.938;30.642;2023-03-23T13:58:11;6.93;;;3.35;;
48925;SDS011;39838;59.938;30.642;2023-03-23T14:00:49;7.82;;;3.40;;
48925;SDS011;39838;59.938;30.642;2023-03-23T14:03:33;5.75;;;2.90;;
48925;SDS011;39838;59.938;30.642;2023-03-23T14:06:04;5.10;;;3.28;;
48925;SDS011;39838;59.938;30.642;2023-03-23T14:08:37;10.13;;;3.38;;
48925;SDS011;39838;59.938;30.642;2023-03-23T14:11:11;4.68;;;2.97;;
48925;SDS011;39838;59.938;30.642;2023-03-23T14:13:49;6.22;;;3.28;;
48925;SDS011;39838;59.938;30.642;2023-03-23T14:16:25;7.63;;;3.05;;
48925;SDS011;39838;59.938;30.642;2023-03-23T14:18:59;6.10;;;3.38;;
48925;SDS011;39838;59.938;30.642;2023-03-23T14:21:32;5.18;;;3.13;;
48925;SDS011;39838;59.938;30.642;2023-03-23T14:24:01;8.55;;;3.05;;
48925;SDS011;39838;59.938;30.642;2023-03-23T14:26:32;12.70;;;3.35;;
48925;SDS011;39838;59.938;30.642;2023-03-23T14:29:03;8.38;;;3.35;;
48925;SDS011;39838;59.938;30.642;2023-03-23T14:31:32;9.13;;;3.53;;
48925;SDS011;39838;59.938;30.642;2023-03-23T14:34:02;8.00;;;3.33;;
48925;SDS011;39838;59.938;30.642;2023-03-23T14:36:31;7.35;;;3.60;;
48925;SDS011;39838;59.938;30.642;2023-03-23T14:39:04;7.07;;;3.60;;
48925;SDS011;39838;59.938;30.642;2023-03-23T14:41:34;8.60;;;3.60;;
48925;SDS011;39838;59.938;30.642;2023-03-23T14:44:06;7.88;;;3.55;;
48925;SDS011;39838;59.938;30.642;2023-03-23T14:46:35;5.65;;;3.03;;
48925;SDS011;39838;59.938;30.642;2023-03-23T14:49:04;6.88;;;3.65;;
48925;SDS011;39838;59.938;30.642;2023-03-23T14:51:32;11.00;;;3.50;;
48925;SDS011;39838;59.938;30.642;2023-03-23T14:53:59;6.05;;;3.50;;
48925;SDS011;39838;59.938;30.642;2023-03-23T14:56:32;6.00;;;3.00;;
48925;SDS011;39838;59.938;30.642;2023-03-23T14:59:04;7.28;;;3.40;;
48925;SDS011;39838;59.938;30.642;2023-03-23T15:01:35;7.22;;;3.63;;
48925;SDS011;39838;59.938;30.642;2023-03-23T15:04:04;5.68;;;3.42;;
48925;SDS011;39838;59.938;30.642;2023-03-23T15:06:36;8.68;;;3.50;;